Time;durP1;ratioP1;P1;durP2;ratioP2;P2;SDS_P1;SDS_P2;PMS_P1;PMS_P2;Temp;Humidity;BMP_temperature;BMP_pressure;BME280_temperature;BME280_humidity;BME280_pressure;Samples;Min_cycle;Max_cycle;Signal;HPM_P1;HPM_P2
2021/11/05 00:00:09;;;;;;;;;;;;;;;5.69;nan;99552.72;5074801;28;20293;-87
2021/11/05 00:02:41;;;;;;;;;;;;;;;5.67;nan;99546.75;5075018;28;19976;-87
2021/11/05 00:05:09;;;;;;;;;;;;;;;5.66;nan;99550.72;5057883;28;20298;-86
2021/11/05 00:07:36;;;;;;;;;;;;;;;5.19;nan;99548.56;5074979;28;19942;-87
2021/11/05 00:10:05;;;;;;;;;;;;;;;5.55;nan;99551.41;5049126;28;19944;-86
2021/11/05 00:12:32;;;;;;;;;;;;;;;5.33;nan;99555.09;5070125;28;19924;-87
2021/11/05 00:14:59;;;;;;;;;;;;;;;5.50;nan;99560.06;5058215;28;20499;-87
2021/11/05 00:17:27;;;;;;;;;;;;;;;5.66;nan;99561.81;5058174;28;20280;-87
2021/11/05 00:19:54;;;;;;;;;;;;;;;5.70;nan;99563.44;5073660;28;19925;-86
2021/11/05 00:22:21;;;;;;;;;;;;;;;5.52;nan;99568.00;5046871;28;20338;-87
2021/11/05 00:24:48;;;;;;;;;;;;;;;5.55;nan;99562.50;5073295;28;19924;-87
2021/11/05 00:27:16;;;;;;;;;;;;;;;5.34;nan;99562.25;5071162;28;19946;-87
2021/11/05 00:29:43;;;;;;;;;;;;;;;4.61;nan;99559.22;5054827;28;19932;-86
2021/11/05 00:32:11;;;;;;;;;;;;;;;5.07;nan;99568.19;5058039;28;20401;-87
2021/11/05 00:34:38;;;;;;;;;;;;;;;5.39;nan;99570.19;5041013;28;19924;-86
2021/11/05 00:37:05;;;;;;;;;;;;;;;5.45;nan;99563.16;5038152;28;19933;-86
2021/11/05 00:39:33;;;;;;;;;;;;;;;5.46;nan;99567.53;5085999;28;20290;-87
2021/11/05 00:42:00;;;;;;;;;;;;;;;5.50;nan;99571.16;5060547;28;19924;-87
2021/11/05 00:44:27;;;;;;;;;;;;;;;5.09;nan;99571.38;5054396;28;19931;-86
2021/11/05 00:46:54;;;;;;;;;;;;;;;5.29;nan;99570.88;5072794;28;19924;-86
2021/11/05 00:49:22;;;;;;;;;;;;;;;5.03;nan;99562.59;5057606;28;20299;-86
2021/11/05 00:51:49;;;;;;;;;;;;;;;5.33;nan;99568.16;5043609;28;20340;-86
2021/11/05 00:54:16;;;;;;;;;;;;;;;5.59;nan;99576.38;5092215;28;20276;-87
2021/11/05 00:56:44;;;;;;;;;;;;;;;5.69;nan;99577.69;5055472;28;19931;-86
2021/11/05 00:59:11;;;;;;;;;;;;;;;5.99;nan;99573.69;5074285;28;19931;-87
2021/11/05 01:01:38;;;;;;;;;;;;;;;6.23;nan;99572.34;5074282;28;19931;-86
2021/11/05 01:04:06;;;;;;;;;;;;;;;6.18;nan;99578.25;5076413;28;20298;-87
2021/11/05 01:06:33;;;;;;;;;;;;;;;6.19;nan;99579.84;5057844;28;19947;-86
2021/11/05 01:09:01;;;;;;;;;;;;;;;6.41;nan;99581.63;5058309;28;19931;-86
2021/11/05 01:11:28;;;;;;;;;;;;;;;6.36;nan;99579.22;5058046;28;19925;-86
2021/11/05 01:13:56;;;;;;;;;;;;;;;6.33;nan;99574.44;5070804;28;19932;-86
2021/11/05 01:16:23;;;;;;;;;;;;;;;6.19;nan;99579.84;5077890;28;19931;-87
2021/11/05 01:18:51;;;;;;;;;;;;;;;6.09;nan;99570.22;5044815;28;20379;-86
2021/11/05 01:21:18;;;;;;;;;;;;;;;5.85;nan;99565.22;5040969;28;19928;-87
2021/11/05 01:23:45;;;;;;;;;;;;;;;5.95;nan;99569.31;5067639;28;19924;-86
2021/11/05 01:26:12;;;;;;;;;;;;;;;5.69;nan;99569.38;5075803;28;19928;-86
2021/11/05 01:28:40;;;;;;;;;;;;;;;6.36;nan;99568.13;5066040;28;19930;-86
2021/11/05 01:31:07;;;;;;;;;;;;;;;6.25;nan;99568.03;5024911;28;19931;-86
2021/11/05 01:33:35;;;;;;;;;;;;;;;6.32;nan;99567.25;5077615;28;19924;-86
2021/11/05 01:36:03;;;;;;;;;;;;;;;6.17;nan;99554.44;5044603;28;20029;-86
2021/11/05 01:38:30;;;;;;;;;;;;;;;6.17;nan;99565.53;5077568;28;20303;-86
2021/11/05 01:40:57;;;;;;;;;;;;;;;6.30;nan;99564.09;5077444;28;19924;-86
2021/11/05 01:43:24;;;;;;;;;;;;;;;6.20;nan;99570.31;5077162;28;19932;-86
2021/11/05 01:45:52;;;;;;;;;;;;;;;6.29;nan;99573.59;5095688;28;19928;-86
2021/11/05 01:48:20;;;;;;;;;;;;;;;5.63;nan;99572.47;5077112;28;19924;-86
2021/11/05 01:50:47;;;;;;;;;;;;;;;5.75;nan;99576.19;5024259;28;19925;-86
2021/11/05 01:53:15;;;;;;;;;;;;;;;5.87;nan;99573.16;5073810;28;19924;-86
2021/11/05 01:55:44;;;;;;;;;;;;;;;5.81;nan;99558.00;5047677;28;19938;-86
2021/11/05 01:58:12;;;;;;;;;;;;;;;5.75;nan;99576.97;5060606;28;19924;-86
2021/11/05 02:00:39;;;;;;;;;;;;;;;5.77;nan;99573.81;5076953;28;19933;-87
2021/11/05 02:03:06;;;;;;;;;;;;;;;5.26;nan;99577.19;5077092;28;19924;-86
2021/11/05 02:05:34;;;;;;;;;;;;;;;5.44;nan;99580.97;5076721;28;19954;-87
2021/11/05 02:08:02;;;;;;;;;;;;;;;5.64;nan;99581.59;5094866;28;20304;-86
2021/11/05 02:10:29;;;;;;;;;;;;;;;5.56;nan;99579.91;5094904;28;19930;-86
2021/11/05 02:12:57;;;;;;;;;;;;;;;5.76;nan;99588.84;5094690;28;20291;-86
2021/11/05 02:15:25;;;;;;;;;;;;;;;5.72;nan;99582.47;5075325;28;19924;-86
2021/11/05 02:17:53;;;;;;;;;;;;;;;5.33;nan;99573.69;5077105;28;19930;-86
2021/11/05 02:20:25;;;;;;;;;;;;;;;5.57;nan;99582.31;5076862;28;19924;-86
2021/11/05 02:22:53;;;;;;;;;;;;;;;5.65;nan;99585.94;5093665;28;19928;-86
2021/11/05 02:25:21;;;;;;;;;;;;;;;5.66;nan;99595.09;5094715;28;19924;-86
2021/11/05 02:27:49;;;;;;;;;;;;;;;5.68;nan;99595.50;5052629;28;20395;-87
2021/11/05 02:30:18;;;;;;;;;;;;;;;5.70;nan;99593.94;5076852;28;20368;-86
2021/11/05 02:32:46;;;;;;;;;;;;;;;5.70;nan;99604.22;5073161;28;19931;-86
2021/11/05 02:35:14;;;;;;;;;;;;;;;5.82;nan;99592.91;5029807;28;19949;-87
2021/11/05 02:37:42;;;;;;;;;;;;;;;5.99;nan;99598.66;5060087;28;20383;-86
2021/11/05 02:40:10;;;;;;;;;;;;;;;5.81;nan;99602.38;5059591;28;19924;-86
2021/11/05 02:42:38;;;;;;;;;;;;;;;5.59;nan;99604.91;5059711;28;19953;-86
2021/11/05 02:45:05;;;;;;;;;;;;;;;5.83;nan;99600.84;5075932;28;20324;-86
2021/11/05 02:47:32;;;;;;;;;;;;;;;5.91;nan;99597.00;5039674;28;20345;-86
2021/11/05 02:50:10;;;;;;;;;;;;;;;5.89;nan;99593.00;5089851;28;19930;-87
2021/11/05 02:52:38;;;;;;;;;;;;;;;6.16;nan;99603.63;5094160;28;19924;-87
2021/11/05 02:55:06;;;;;;;;;;;;;;;6.40;nan;99591.13;5094360;28;19924;-86
2021/11/05 02:57:33;;;;;;;;;;;;;;;6.49;nan;99592.41;5094067;28;19934;-86
2021/11/05 03:00:00;;;;;;;;;;;;;;;6.31;nan;99593.44;5038850;28;19924;-86
2021/11/05 03:02:28;;;;;;;;;;;;;;;6.18;nan;99586.56;5076054;28;19928;-86
2021/11/05 03:04:55;;;;;;;;;;;;;;;5.99;nan;99593.13;5094036;28;19923;-86
2021/11/05 03:07:23;;;;;;;;;;;;;;;5.66;nan;99590.34;5075375;28;19928;-86
2021/11/05 03:09:50;;;;;;;;;;;;;;;5.52;nan;99590.97;5109570;28;19928;-86
2021/11/05 03:12:18;;;;;;;;;;;;;;;5.69;nan;99597.91;5059458;28;20209;-87
2021/11/05 03:14:45;;;;;;;;;;;;;;;5.71;nan;99589.22;5075214;28;19932;-86
2021/11/05 03:17:13;;;;;;;;;;;;;;;5.49;nan;99596.47;5075879;28;19924;-86
2021/11/05 03:19:41;;;;;;;;;;;;;;;5.47;nan;99585.75;5058928;28;19931;-86
2021/11/05 03:22:08;;;;;;;;;;;;;;;5.48;nan;99589.34;5075629;28;19924;-86
2021/11/05 03:24:35;;;;;;;;;;;;;;;4.83;nan;99597.13;5057992;28;19929;-86
2021/11/05 03:27:02;;;;;;;;;;;;;;;5.25;nan;99600.53;5075095;28;19939;-86
2021/11/05 03:29:30;;;;;;;;;;;;;;;5.19;nan;99603.97;5056012;28;19925;-87
2021/11/05 03:31:57;;;;;;;;;;;;;;;5.33;nan;99610.50;5094109;28;19924;-86
2021/11/05 03:34:25;;;;;;;;;;;;;;;5.32;nan;99608.13;5038956;28;20421;-87
2021/11/05 03:36:52;;;;;;;;;;;;;;;4.54;nan;99603.41;5041892;28;19980;-86
2021/11/05 03:39:20;;;;;;;;;;;;;;;4.94;nan;99614.69;5093261;28;19928;-86
2021/11/05 03:41:47;;;;;;;;;;;;;;;5.33;nan;99610.50;5038494;28;19925;-87
2021/11/05 03:44:14;;;;;;;;;;;;;;;4.77;nan;99606.13;5065383;28;19935;-87
2021/11/05 03:46:42;;;;;;;;;;;;;;;4.85;nan;99600.31;5075024;28;19930;-87
2021/11/05 03:49:09;;;;;;;;;;;;;;;5.21;nan;99610.75;5058499;28;19924;-86
2021/11/05 03:51:36;;;;;;;;;;;;;;;5.33;nan;99604.97;5092748;28;20367;-87
2021/11/05 03:54:06;;;;;;;;;;;;;;;5.38;nan;99607.41;5055001;28;20191;-87
2021/11/05 03:56:34;;;;;;;;;;;;;;;4.77;nan;99620.75;5052053;28;19928;-86
2021/11/05 03:59:02;;;;;;;;;;;;;;;4.98;nan;99623.84;5024362;28;19931;-86
2021/11/05 04:01:29;;;;;;;;;;;;;;;5.08;nan;99620.47;5034403;28;19931;-86
2021/11/05 04:03:57;;;;;;;;;;;;;;;5.17;nan;99614.63;5055897;28;19928;-87
2021/11/05 04:06:24;;;;;;;;;;;;;;;5.03;nan;99617.19;5038288;28;19930;-87
2021/11/05 04:08:52;;;;;;;;;;;;;;;5.01;nan;99617.56;5072174;28;19924;-86
2021/11/05 04:11:20;;;;;;;;;;;;;;;5.11;nan;99614.16;5074333;28;19973;-86
2021/11/05 04:13:47;;;;;;;;;;;;;;;5.08;nan;99626.00;5074897;28;20272;-86
2021/11/05 04:16:14;;;;;;;;;;;;;;;4.80;nan;99624.78;5054398;28;19934;-87
2021/11/05 04:18:42;;;;;;;;;;;;;;;5.04;nan;99633.44;5048374;28;19925;-86
2021/11/05 04:21:09;;;;;;;;;;;;;;;5.11;nan;99629.97;5092944;28;19981;-87
2021/11/05 04:23:37;;;;;;;;;;;;;;;5.14;nan;99635.59;5092641;28;19924;-87
2021/11/05 04:26:04;;;;;;;;;;;;;;;5.19;nan;99638.03;5074305;28;19928;-87
2021/11/05 04:28:32;;;;;;;;;;;;;;;4.77;nan;99642.91;5055842;28;19950;-87
2021/11/05 04:30:59;;;;;;;;;;;;;;;5.02;nan;99646.88;5092051;28;19928;-87
2021/11/05 04:33:31;;;;;;;;;;;;;;;5.10;nan;99651.34;5054400;28;19925;-87
2021/11/05 04:35:58;;;;;;;;;;;;;;;4.85;nan;99654.91;5074569;28;20294;-87
2021/11/05 04:38:26;;;;;;;;;;;;;;;4.60;nan;99665.59;5039497;28;19925;-86
2021/11/05 04:40:54;;;;;;;;;;;;;;;4.84;nan;99673.50;5059122;28;19928;-87
2021/11/05 04:43:21;;;;;;;;;;;;;;;4.61;nan;99672.69;5058838;28;19952;-87
2021/11/05 04:45:48;;;;;;;;;;;;;;;4.59;nan;99675.03;5074348;28;19937;-87
2021/11/05 04:48:15;;;;;;;;;;;;;;;4.89;nan;99675.16;5070865;28;19947;-87
2021/11/05 04:50:43;;;;;;;;;;;;;;;4.99;nan;99672.56;5039248;28;19931;-87
2021/11/05 04:53:10;;;;;;;;;;;;;;;5.04;nan;99676.97;5058460;28;19925;-87
2021/11/05 04:55:38;;;;;;;;;;;;;;;5.15;nan;99681.50;5070626;28;19924;-86
2021/11/05 04:58:05;;;;;;;;;;;;;;;3.75;nan;99678.97;5078197;28;19928;-86
2021/11/05 05:00:33;;;;;;;;;;;;;;;3.44;nan;99690.13;5078188;28;19985;-87
2021/11/05 05:03:01;;;;;;;;;;;;;;;4.13;nan;99687.25;5078244;28;19931;-86
2021/11/05 05:05:29;;;;;;;;;;;;;;;4.34;nan;99684.88;5058144;28;19924;-86
2021/11/05 05:07:57;;;;;;;;;;;;;;;4.51;nan;99684.41;5042494;28;19928;-86
2021/11/05 05:10:25;;;;;;;;;;;;;;;4.80;nan;99697.53;5061231;28;19924;-87
2021/11/05 05:12:53;;;;;;;;;;;;;;;4.76;nan;99685.63;5061565;28;19923;-86
2021/11/05 05:15:21;;;;;;;;;;;;;;;4.59;nan;99680.56;5045260;28;19924;-87
2021/11/05 05:17:48;;;;;;;;;;;;;;;4.76;nan;99684.81;5078145;28;20375;-87
2021/11/05 05:20:17;;;;;;;;;;;;;;;4.91;nan;99692.97;5057684;28;19929;-87
2021/11/05 05:22:44;;;;;;;;;;;;;;;4.41;nan;99690.53;5052396;28;19924;-86
2021/11/05 05:25:12;;;;;;;;;;;;;;;4.49;nan;99686.72;5060810;28;20306;-87
2021/11/05 05:27:40;;;;;;;;;;;;;;;4.45;nan;99696.94;5077477;28;19930;-86
2021/11/05 05:30:10;;;;;;;;;;;;;;;3.84;nan;99698.88;5061652;28;19938;-86
2021/11/05 05:32:37;;;;;;;;;;;;;;;4.48;nan;99695.41;5049322;28;20294;-86
2021/11/05 05:35:06;;;;;;;;;;;;;;;4.52;nan;99690.72;5077573;28;20299;-86
2021/11/05 05:37:34;;;;;;;;;;;;;;;4.54;nan;99689.19;5077583;28;19977;-87
2021/11/05 05:40:01;;;;;;;;;;;;;;;4.17;nan;99690.06;5077063;28;19924;-86
2021/11/05 05:42:28;;;;;;;;;;;;;;;3.69;nan;99697.00;5077404;28;20370;-87
2021/11/05 05:44:56;;;;;;;;;;;;;;;4.25;nan;99684.31;5057487;28;19929;-87
2021/11/05 05:47:23;;;;;;;;;;;;;;;4.26;nan;99688.66;5057319;28;19978;-87
2021/11/05 05:49:52;;;;;;;;;;;;;;;3.47;nan;99701.25;5046263;28;19929;-87
2021/11/05 05:52:21;;;;;;;;;;;;;;;4.32;nan;99686.38;5106852;28;20507;-87
2021/11/05 05:54:48;;;;;;;;;;;;;;;4.45;nan;99694.19;5077055;28;20276;-87
2021/11/05 05:57:16;;;;;;;;;;;;;;;4.73;nan;99691.91;5057263;28;19929;-87
2021/11/05 05:59:43;;;;;;;;;;;;;;;4.42;nan;99700.44;5060723;28;20423;-86
2021/11/05 06:02:10;;;;;;;;;;;;;;;4.58;nan;99695.59;5056975;28;19953;-86
2021/11/05 06:04:37;;;;;;;;;;;;;;;4.60;nan;99704.34;5055791;28;19931;-87
2021/11/05 06:07:05;;;;;;;;;;;;;;;4.40;nan;99711.06;5085803;28;20276;-86
2021/11/05 06:09:32;;;;;;;;;;;;;;;3.73;nan;99711.69;5060107;28;19924;-86
2021/11/05 06:11:59;;;;;;;;;;;;;;;4.46;nan;99709.59;5056846;28;20322;-87
2021/11/05 06:14:26;;;;;;;;;;;;;;;4.40;nan;99708.31;5058396;28;19924;-87
2021/11/05 06:16:54;;;;;;;;;;;;;;;4.11;nan;99708.91;5056757;28;19924;-87
2021/11/05 06:19:21;;;;;;;;;;;;;;;4.45;nan;99707.19;5054346;28;19931;-86
2021/11/05 06:21:49;;;;;;;;;;;;;;;4.33;nan;99705.38;5094511;28;19924;-87
2021/11/05 06:24:16;;;;;;;;;;;;;;;3.61;nan;99712.63;5076692;28;19932;-86
2021/11/05 06:26:43;;;;;;;;;;;;;;;4.16;nan;99716.13;5040198;28;19970;-87
2021/11/05 06:29:10;;;;;;;;;;;;;;;4.19;nan;99720.94;5051013;28;19928;-86
2021/11/05 06:31:39;;;;;;;;;;;;;;;3.79;nan;99724.06;5059512;28;19924;-86
2021/11/05 06:34:06;;;;;;;;;;;;;;;3.91;nan;99715.63;5076539;28;19924;-87
2021/11/05 06:36:34;;;;;;;;;;;;;;;3.44;nan;99726.03;5075787;28;19928;-86
2021/11/05 06:39:05;;;;;;;;;;;;;;;4.56;nan;99731.13;5039783;28;19924;-86
2021/11/05 06:41:51;;;;;;;;;;;;;;;3.64;nan;99722.97;5101202;28;19935;-86
2021/11/05 06:44:36;;;;;;;;;;;;;;;3.19;nan;99725.47;5067680;28;19932;-87
2021/11/05 06:47:03;;;;;;;;;;;;;;;4.28;nan;99722.31;5076166;28;19931;-86
2021/11/05 06:49:49;;;;;;;;;;;;;;;3.86;nan;99729.75;5059066;28;19950;-86
2021/11/05 06:52:17;;;;;;;;;;;;;;;4.56;nan;99722.81;5070971;28;19977;-86
2021/11/05 06:54:44;;;;;;;;;;;;;;;4.48;nan;99723.88;5039461;28;19928;-86
2021/11/05 06:57:11;;;;;;;;;;;;;;;4.79;nan;99707.03;5069630;28;19931;-87
2021/11/05 06:59:38;;;;;;;;;;;;;;;6.03;nan;99723.56;5075881;28;19930;-87
2021/11/05 07:02:06;;;;;;;;;;;;;;;6.89;nan;99736.78;5093374;28;20314;-86
2021/11/05 07:04:34;;;;;;;;;;;;;;;8.21;nan;99746.41;5093732;28;19931;-87
2021/11/05 07:07:01;;;;;;;;;;;;;;;8.87;nan;99734.72;5058975;28;19927;-86
2021/11/05 07:09:28;;;;;;;;;;;;;;;9.61;nan;99750.63;5075511;28;20039;-86
2021/11/05 07:11:56;;;;;;;;;;;;;;;9.78;nan;99750.63;5075946;28;19934;-86
2021/11/05 07:14:23;;;;;;;;;;;;;;;9.76;nan;99752.19;5073730;28;19924;-86
2021/11/05 07:16:50;;;;;;;;;;;;;;;10.26;nan;99748.91;5075965;28;20055;-86
2021/11/05 07:19:18;;;;;;;;;;;;;;;10.28;nan;99748.50;5075593;28;19924;-86
2021/11/05 07:21:46;;;;;;;;;;;;;;;10.78;nan;99752.66;5038816;28;19928;-87
2021/11/05 07:24:13;;;;;;;;;;;;;;;10.87;nan;99750.19;5015132;28;20306;-87
2021/11/05 07:26:45;;;;;;;;;;;;;;;10.79;nan;99765.41;5059327;28;19929;-86
2021/11/05 07:29:13;;;;;;;;;;;;;;;10.61;nan;99759.13;5055462;28;19925;-86
2021/11/05 07:31:41;;;;;;;;;;;;;;;10.42;nan;99768.00;5036350;28;20375;-87
2021/11/05 07:34:08;;;;;;;;;;;;;;;10.72;nan;99755.06;5065093;28;20420;-87
2021/11/05 07:36:36;;;;;;;;;;;;;;;10.71;nan;99770.25;5093115;28;20350;-86
2021/11/05 07:39:03;;;;;;;;;;;;;;;10.37;nan;99760.03;5075233;28;19934;-87
2021/11/05 07:41:31;;;;;;;;;;;;;;;10.57;nan;99767.50;5075197;28;19924;-86
2021/11/05 07:43:59;;;;;;;;;;;;;;;11.00;nan;99770.88;5057694;28;20375;-87
2021/11/05 07:46:27;;;;;;;;;;;;;;;10.70;nan;99767.84;5075395;28;20454;-87
2021/11/05 07:48:54;;;;;;;;;;;;;;;11.05;nan;99767.66;5039441;28;19929;-87
2021/11/05 07:51:21;;;;;;;;;;;;;;;10.92;nan;99772.91;5042143;28;20367;-87
2021/11/05 07:53:48;;;;;;;;;;;;;;;10.89;nan;99781.31;5058632;28;19924;-87
2021/11/05 07:56:16;;;;;;;;;;;;;;;11.39;nan;99784.59;5038391;28;19954;-88
2021/11/05 07:58:54;;;;;;;;;;;;;;;11.05;nan;99780.81;5085465;28;20312;-87
2021/11/05 08:01:22;;;;;;;;;;;;;;;10.97;nan;99794.06;5075093;28;20393;-87
2021/11/05 08:03:49;;;;;;;;;;;;;;;10.90;nan;99802.50;5074577;28;20340;-87
2021/11/05 08:06:16;;;;;;;;;;;;;;;11.04;nan;99810.81;5058008;28;19924;-88
2021/11/05 08:09:03;;;;;;;;;;;;;;;11.72;nan;99818.31;5063672;28;19931;-86
2021/11/05 08:11:33;;;;;;;;;;;;;;;11.48;nan;99810.09;5060876;28;19947;-87
2021/11/05 08:14:00;;;;;;;;;;;;;;;11.23;nan;99799.09;5057140;28;19928;-87
2021/11/05 08:16:27;;;;;;;;;;;;;;;11.83;nan;99807.03;5092568;28;19924;-88
2021/11/05 08:18:54;;;;;;;;;;;;;;;11.86;nan;99815.38;5038028;28;19925;-87
2021/11/05 08:21:21;;;;;;;;;;;;;;;11.56;nan;99804.03;5066936;28;20110;-88
2021/11/05 08:23:49;;;;;;;;;;;;;;;11.64;nan;99807.59;5038378;28;19924;-87
2021/11/05 08:26:18;;;;;;;;;;;;;;;11.65;nan;99812.78;5053401;28;19930;-87
2021/11/05 08:28:45;;;;;;;;;;;;;;;12.06;nan;99808.00;5092965;28;19928;-87
2021/11/05 08:31:13;;;;;;;;;;;;;;;11.65;nan;99789.56;5044961;28;19931;-87
2021/11/05 08:33:41;;;;;;;;;;;;;;;11.84;nan;99814.22;5076890;28;19930;-87
2021/11/05 08:36:11;;;;;;;;;;;;;;;11.83;nan;99802.22;5074540;28;20279;-87
2021/11/05 08:38:38;;;;;;;;;;;;;;;11.56;nan;99815.22;5092289;28;19924;-88
2021/11/05 08:41:07;;;;;;;;;;;;;;;11.53;nan;99818.03;5074722;28;20286;-88
2021/11/05 08:43:34;;;;;;;;;;;;;;;11.74;nan;99813.09;5054482;28;19924;-87
2021/11/05 08:46:04;;;;;;;;;;;;;;;11.98;nan;99809.25;5092334;28;19947;-87
2021/11/05 08:48:34;;;;;;;;;;;;;;;12.34;nan;99812.50;5058703;28;19973;-87
2021/11/05 08:51:05;;;;;;;;;;;;;;;12.84;nan;99798.66;5057728;28;20425;-88
2021/11/05 08:53:32;;;;;;;;;;;;;;;13.27;nan;99802.50;5038036;28;20305;-88
2021/11/05 08:56:01;;;;;;;;;;;;;;;14.00;nan;99787.19;5042159;28;19930;-87
2021/11/05 08:58:28;;;;;;;;;;;;;;;14.27;nan;99790.72;5074618;28;19946;-88
2021/11/05 09:00:56;;;;;;;;;;;;;;;14.60;nan;99802.13;5040066;28;19929;-87
2021/11/05 09:03:23;;;;;;;;;;;;;;;14.41;nan;99800.91;5054089;28;20387;-88
2021/11/05 09:05:50;;;;;;;;;;;;;;;13.89;nan;99792.19;5052490;28;19927;-88
2021/11/05 09:08:17;;;;;;;;;;;;;;;13.68;nan;99786.97;5074275;28;20276;-87
2021/11/05 09:10:45;;;;;;;;;;;;;;;13.70;nan;99800.56;5057383;28;20028;-88
2021/11/05 09:13:12;;;;;;;;;;;;;;;13.32;nan;99808.41;5068914;28;20338;-87
2021/11/05 09:15:41;;;;;;;;;;;;;;;13.67;nan;99809.84;5062095;28;19925;-87
2021/11/05 09:18:09;;;;;;;;;;;;;;;12.49;nan;99817.53;5055611;28;19932;-88
2021/11/05 09:20:37;;;;;;;;;;;;;;;12.69;nan;99821.25;5057557;28;19932;-88
2021/11/05 09:23:05;;;;;;;;;;;;;;;12.99;nan;99822.50;5057471;28;19924;-88
2021/11/05 09:25:32;;;;;;;;;;;;;;;12.61;nan;99827.41;5077482;28;20376;-88
2021/11/05 09:27:59;;;;;;;;;;;;;;;12.90;nan;99841.84;5042039;28;19931;-88
2021/11/05 09:30:26;;;;;;;;;;;;;;;12.77;nan;99824.78;5077574;28;19985;-88
2021/11/05 09:32:53;;;;;;;;;;;;;;;12.99;nan;99836.53;5077696;28;20311;-87
2021/11/05 09:35:21;;;;;;;;;;;;;;;13.05;nan;99826.44;5095495;28;19930;-88
2021/11/05 09:37:50;;;;;;;;;;;;;;;13.03;nan;99831.69;5077657;28;19932;-87
2021/11/05 09:40:19;;;;;;;;;;;;;;;12.75;nan;99825.19;5060236;28;19928;-88
2021/11/05 09:42:48;;;;;;;;;;;;;;;12.64;nan;99840.56;5091026;28;19935;-88
2021/11/05 09:45:17;;;;;;;;;;;;;;;12.62;nan;99832.59;5088493;28;19931;-89
2021/11/05 09:47:45;;;;;;;;;;;;;;;12.56;nan;99839.88;5060688;28;19928;-87
2021/11/05 09:50:14;;;;;;;;;;;;;;;12.34;nan;99848.94;5057253;28;19924;-88
2021/11/05 09:52:42;;;;;;;;;;;;;;;12.49;nan;99845.56;5075822;28;19928;-87
2021/11/05 09:55:09;;;;;;;;;;;;;;;12.22;nan;99844.63;5060855;28;19924;-88
2021/11/05 09:57:36;;;;;;;;;;;;;;;11.74;nan;99843.88;5077133;28;19924;-88
2021/11/05 10:00:05;;;;;;;;;;;;;;;11.68;nan;99851.13;5060297;28;19947;-88
2021/11/05 10:02:41;;;;;;;;;;;;;;;12.08;nan;99853.19;5057118;28;19924;-87
2021/11/05 10:05:11;;;;;;;;;;;;;;;11.89;nan;99858.59;5082987;28;19928;-88
2021/11/05 10:07:45;;;;;;;;;;;;;;;11.67;nan;99845.94;5076827;28;19931;-88
2021/11/05 10:10:13;;;;;;;;;;;;;;;11.85;nan;99858.59;5110569;28;19924;-87
2021/11/05 10:12:51;;;;;;;;;;;;;;;12.06;nan;99872.41;5060322;28;19928;-88
2021/11/05 10:15:19;;;;;;;;;;;;;;;11.99;nan;99863.28;5060036;28;19947;-88
2021/11/05 10:17:47;;;;;;;;;;;;;;;12.02;nan;99874.47;5075794;28;20404;-88
2021/11/05 10:20:17;;;;;;;;;;;;;;;12.54;nan;99884.34;5047659;28;20301;-89
2021/11/05 10:22:59;;;;;;;;;;;;;;;12.93;nan;99886.69;5060013;28;19931;-88
2021/11/05 10:25:37;;;;;;;;;;;;;;;13.40;nan;99882.88;5064920;28;19943;-89
2021/11/05 10:28:09;;;;;;;;;;;;;;;12.85;nan;99878.78;5058210;28;19924;-88
2021/11/05 10:30:43;;;;;;;;;;;;;;;13.06;nan;99884.13;5076622;28;20387;-89
2021/11/05 10:33:12;;;;;;;;;;;;;;;13.06;nan;99881.34;5076493;28;20298;-88
2021/11/05 10:35:41;;;;;;;;;;;;;;;12.98;nan;99888.25;5075336;28;20290;-88
2021/11/05 10:38:26;;;;;;;;;;;;;;;12.80;nan;99899.66;5076650;28;19986;-88
2021/11/05 10:40:55;;;;;;;;;;;;;;;12.96;nan;99899.06;5055957;28;20420;-88
2021/11/05 10:43:58;;;;;;;;;;;;;;;12.72;nan;99910.16;5067970;28;19924;-88
2021/11/05 10:46:31;;;;;;;;;;;;;;;12.58;nan;99898.31;5015532;28;20007;-87
2021/11/05 10:49:21;;;;;;;;;;;;;;;13.02;nan;99894.63;4998856;28;19986;-88
2021/11/05 10:51:48;;;;;;;;;;;;;;;12.86;nan;99897.22;5015586;28;19929;-88
2021/11/05 10:54:18;;;;;;;;;;;;;;;13.01;nan;99893.03;5015078;28;19929;-88
2021/11/05 10:56:46;;;;;;;;;;;;;;;12.54;nan;99903.94;5031617;28;20408;-87
2021/11/05 10:59:13;;;;;;;;;;;;;;;12.99;nan;99895.44;5031254;28;19925;-88
2021/11/05 11:01:42;;;;;;;;;;;;;;;12.90;nan;99898.75;4998588;28;20344;-88
2021/11/05 11:04:10;;;;;;;;;;;;;;;12.90;nan;99906.38;5015044;28;19925;-88
2021/11/05 11:06:42;;;;;;;;;;;;;;;12.30;nan;99896.59;5019375;28;19925;-87
2021/11/05 11:09:11;;;;;;;;;;;;;;;12.33;nan;99901.38;4998438;28;20008;-89
2021/11/05 11:11:43;;;;;;;;;;;;;;;12.84;nan;99906.03;5014748;28;20380;-88
2021/11/05 11:14:17;;;;;;;;;;;;;;;13.53;nan;99908.34;5008320;28;19944;-88
2021/11/05 11:16:46;;;;;;;;;;;;;;;13.76;nan;99905.59;5028276;28;19931;-88
2021/11/05 11:19:17;;;;;;;;;;;;;;;13.79;nan;99910.38;4991522;28;19975;-88
2021/11/05 11:21:44;;;;;;;;;;;;;;;14.34;nan;99899.44;5075697;28;19924;-88
2021/11/05 11:24:16;;;;;;;;;;;;;;;14.50;nan;99902.34;5038943;28;19929;-88
2021/11/05 11:26:44;;;;;;;;;;;;;;;14.30;nan;99904.31;5057188;28;19928;-88
2021/11/05 11:29:12;;;;;;;;;;;;;;;15.02;nan;99908.16;5058927;28;19924;-89
2021/11/05 11:31:40;;;;;;;;;;;;;;;14.48;nan;99913.22;5093263;28;19928;-88
2021/11/05 11:34:08;;;;;;;;;;;;;;;15.09;nan;99908.81;5038731;28;19924;-88
2021/11/05 11:36:41;;;;;;;;;;;;;;;14.61;nan;99905.75;5071453;28;20296;-88
2021/11/05 11:39:13;;;;;;;;;;;;;;;15.29;nan;99903.97;5070139;28;19969;-88
2021/11/05 11:41:41;;;;;;;;;;;;;;;14.98;nan;99902.59;5084111;28;19931;-89
2021/11/05 11:44:12;;;;;;;;;;;;;;;15.47;nan;99897.97;5075151;28;20294;-87
2021/11/05 11:46:51;;;;;;;;;;;;;;;14.80;nan;99910.59;5054912;28;19924;-88
2021/11/05 11:49:34;;;;;;;;;;;;;;;15.05;nan;99916.53;5057106;28;19924;-88
2021/11/05 11:52:01;;;;;;;;;;;;;;;15.39;nan;99902.16;5038697;28;19925;-88
2021/11/05 11:54:29;;;;;;;;;;;;;;;15.14;nan;99907.50;5057671;28;19928;-88
2021/11/05 11:57:13;;;;;;;;;;;;;;;14.59;nan;99902.56;5058395;28;20360;-88
2021/11/05 11:59:43;;;;;;;;;;;;;;;15.06;nan;99901.22;5075452;28;20276;-88
2021/11/05 12:02:29;;;;;;;;;;;;;;;15.01;nan;99907.34;5022113;28;20294;-88
2021/11/05 12:04:58;;;;;;;;;;;;;;;14.23;nan;99908.06;5042313;28;20149;-88
2021/11/05 12:07:25;;;;;;;;;;;;;;;14.30;nan;99907.13;5068908;28;19923;-87
2021/11/05 12:09:53;;;;;;;;;;;;;;;14.13;nan;99909.00;5043283;28;19931;-88
2021/11/05 12:12:20;;;;;;;;;;;;;;;14.33;nan;99907.06;5038248;28;19924;-87
2021/11/05 12:15:03;;;;;;;;;;;;;;;14.51;nan;99912.38;5069912;28;19925;-88
2021/11/05 12:17:50;;;;;;;;;;;;;;;14.61;nan;99921.84;5041699;28;19924;-88
2021/11/05 12:20:21;;;;;;;;;;;;;;;14.32;nan;99905.50;5047146;28;19925;-88
2021/11/05 12:23:08;;;;;;;;;;;;;;;14.71;nan;99909.59;5038560;28;19932;-88
2021/11/05 12:25:43;;;;;;;;;;;;;;;14.48;nan;99902.78;5057760;28;19924;-87
2021/11/05 12:28:19;;;;;;;;;;;;;;;14.12;nan;99910.22;5055567;28;19972;-88
2021/11/05 12:30:48;;;;;;;;;;;;;;;14.55;nan;99904.69;5048462;28;19924;-88
2021/11/05 12:33:45;;;;;;;;;;;;;;;14.34;nan;99903.03;5043888;28;19925;-88
2021/11/05 12:36:12;;;;;;;;;;;;;;;13.43;nan;99910.09;5079678;28;19931;-88
2021/11/05 12:39:01;;;;;;;;;;;;;;;14.31;nan;99897.50;5092157;28;19934;-88
2021/11/05 12:41:28;;;;;;;;;;;;;;;14.04;nan;99893.91;5092531;28;19924;-88
2021/11/05 12:44:09;;;;;;;;;;;;;;;14.02;nan;99907.59;5058045;28;19946;-88
2021/11/05 12:46:43;;;;;;;;;;;;;;;14.31;nan;99897.50;5075002;28;20275;-88
2021/11/05 12:49:29;;;;;;;;;;;;;;;14.49;nan;99903.59;5092722;28;19935;-88
2021/11/05 12:51:56;;;;;;;;;;;;;;;13.81;nan;99897.47;5057935;28;20415;-88
2021/11/05 12:54:25;;;;;;;;;;;;;;;14.45;nan;99888.78;5074217;28;19924;-88
2021/11/05 12:56:53;;;;;;;;;;;;;;;14.20;nan;99885.59;5074662;28;20380;-88
2021/11/05 12:59:24;;;;;;;;;;;;;;;14.96;nan;99881.75;5075687;28;20302;-88
2021/11/05 13:02:03;;;;;;;;;;;;;;;13.87;nan;99886.56;5078459;28;19928;-87
2021/11/05 13:04:44;;;;;;;;;;;;;;;;;;;;;
2021/11/05 13:08:02;;;;;;;;;;;;;;;14.40;nan;99883.66;5079873;28;19928;-88
2021/11/05 13:10:31;;;;;;;;;;;;;;;14.09;nan;99884.97;5057807;28;20319;-88
2021/11/05 13:12:59;;;;;;;;;;;;;;;14.52;nan;99881.00;5061782;28;19932;-88
2021/11/05 13:15:30;;;;;;;;;;;;;;;14.03;nan;99872.63;5078221;28;19977;-88
2021/11/05 13:17:58;;;;;;;;;;;;;;;13.42;nan;99882.47;5060312;28;19952;-88
2021/11/05 13:20:31;;;;;;;;;;;;;;;14.44;nan;99873.13;5096256;28;19924;-88
2021/11/05 13:22:59;;;;;;;;;;;;;;;13.67;nan;99892.09;5095474;28;19932;-87
2021/11/05 13:25:28;;;;;;;;;;;;;;;14.15;nan;99889.69;5077663;28;19924;-87